createdAt,value
2018-07-03T00:00:10.180Z,14.70
2018-07-03T00:02:38.988Z,14.80
2018-07-03T00:05:06.856Z,14.90
2018-07-03T00:07:34.850Z,14.90
2018-07-03T00:10:02.510Z,14.70
2018-07-03T00:12:30.741Z,14.60
2018-07-03T00:14:58.343Z,14.60
2018-07-03T00:17:25.937Z,14.60
2018-07-03T00:19:53.501Z,14.50
2018-07-03T00:22:21.736Z,14.50
2018-07-03T00:24:49.383Z,14.50
2018-07-03T00:27:18.498Z,14.60
2018-07-03T00:29:46.115Z,14.50
2018-07-03T00:32:14.133Z,14.50
2018-07-03T00:34:41.747Z,14.50
2018-07-03T00:37:09.631Z,14.60
2018-07-03T00:39:37.251Z,14.70
2018-07-03T00:42:04.865Z,14.80
2018-07-03T00:44:32.484Z,14.80
2018-07-03T00:47:01.313Z,14.80
2018-07-03T00:49:29.608Z,14.80
2018-07-03T00:54:24.743Z,14.60
2018-07-03T00:56:53.109Z,14.60
2018-07-03T00:59:21.298Z,14.60
2018-07-03T01:01:48.946Z,14.50
2018-07-03T01:04:16.544Z,14.50
2018-07-03T01:06:44.225Z,14.60
2018-07-03T01:09:11.941Z,14.40
2018-07-03T01:11:39.960Z,14.60
2018-07-03T01:14:07.837Z,14.60
2018-07-03T01:16:35.521Z,14.60
2018-07-03T01:19:03.123Z,14.70
2018-07-03T01:21:30.749Z,14.70
2018-07-03T01:23:59.020Z,14.70
2018-07-03T01:26:27.141Z,14.60
2018-07-03T01:28:55.044Z,14.60
2018-07-03T01:31:22.657Z,14.60
2018-07-03T01:33:50.924Z,14.50
2018-07-03T01:36:18.552Z,14.30
2018-07-03T01:38:46.107Z,14.40
2018-07-03T01:41:14.508Z,14.40
2018-07-03T01:43:42.117Z,14.30
2018-07-03T01:46:09.768Z,14.30
2018-07-03T01:48:37.360Z,14.40
2018-07-03T01:51:04.980Z,14.40
2018-07-03T01:53:32.561Z,14.40
2018-07-03T01:56:00.137Z,14.50
2018-07-03T01:58:27.709Z,14.60
2018-07-03T02:00:55.331Z,14.60
2018-07-03T02:03:22.912Z,14.70
2018-07-03T02:05:50.497Z,14.80
2018-07-03T02:08:18.164Z,14.90
2018-07-03T02:10:45.752Z,15.00
2018-07-03T02:15:40.856Z,15.10
2018-07-03T02:18:08.443Z,15.20
2018-07-03T02:20:36.037Z,15.20
2018-07-03T02:23:03.805Z,15.10
2018-07-03T02:25:31.396Z,15.20
2018-07-03T02:27:59.008Z,15.10
2018-07-03T02:30:26.616Z,15.00
2018-07-03T02:32:54.976Z,15.00
2018-07-03T02:35:22.660Z,14.90
2018-07-03T02:37:50.265Z,15.00
2018-07-03T02:40:17.885Z,14.90
2018-07-03T02:42:45.475Z,15.10
2018-07-03T02:45:13.063Z,15.20
2018-07-03T02:47:40.636Z,15.30
2018-07-03T02:50:08.224Z,15.10
2018-07-03T02:52:35.839Z,15.20
2018-07-03T02:55:03.501Z,15.20
2018-07-03T02:57:31.113Z,15.20
2018-07-03T02:59:58.771Z,15.20
2018-07-03T03:02:26.356Z,15.10
2018-07-03T03:04:53.948Z,15.10
2018-07-03T03:07:21.543Z,15.10
2018-07-03T03:09:49.270Z,15.10
2018-07-03T03:12:17.059Z,15.00
2018-07-03T03:14:45.168Z,14.90
2018-07-03T03:19:41.316Z,14.80
2018-07-03T03:22:08.952Z,15.00
2018-07-03T03:24:36.560Z,15.00
2018-07-03T03:27:04.324Z,15.10
2018-07-03T03:29:31.881Z,15.20
2018-07-03T03:31:59.493Z,15.40
2018-07-03T03:34:28.178Z,15.60
2018-07-03T03:36:55.760Z,15.60
2018-07-03T03:39:23.391Z,15.80
2018-07-03T03:41:51.138Z,15.90
2018-07-03T03:44:18.760Z,16.00
2018-07-03T03:46:46.392Z,15.90
2018-07-03T03:51:41.771Z,15.90
2018-07-03T03:54:09.357Z,15.80
2018-07-03T03:56:36.915Z,15.60
2018-07-03T03:59:04.684Z,15.50
2018-07-03T04:01:32.309Z,15.40
2018-07-03T04:03:59.933Z,15.40
2018-07-03T04:06:27.524Z,15.40
2018-07-03T04:08:55.104Z,15.50
2018-07-03T04:11:22.708Z,15.60
2018-07-03T04:13:51.339Z,15.70
2018-07-03T04:16:18.939Z,15.70
2018-07-03T04:18:46.528Z,15.80
2018-07-03T04:23:42.276Z,15.90
2018-07-03T04:26:10.581Z,15.90
2018-07-03T04:28:38.177Z,16.00
2018-07-03T04:31:05.817Z,16.20
2018-07-03T04:33:33.420Z,16.40
2018-07-03T04:36:01.028Z,16.50
2018-07-03T04:38:28.589Z,16.70
2018-07-03T04:40:56.217Z,16.80
2018-07-03T04:43:23.781Z,16.90
2018-07-03T04:45:51.420Z,16.90
2018-07-03T04:48:19.104Z,16.90
2018-07-03T04:50:46.751Z,16.80
2018-07-03T04:53:14.328Z,16.80
2018-07-03T04:55:41.931Z,16.80
2018-07-03T04:58:09.516Z,16.90
2018-07-03T05:00:37.976Z,16.80
2018-07-03T05:03:05.772Z,16.70
2018-07-03T05:05:33.349Z,16.80
2018-07-03T05:08:00.938Z,17.10
2018-07-03T05:10:28.570Z,17.40
2018-07-03T05:12:56.170Z,17.70
2018-07-03T05:15:23.745Z,17.90
2018-07-03T05:17:51.320Z,18.10
2018-07-03T05:20:18.944Z,18.30
2018-07-03T05:22:47.041Z,18.20
2018-07-03T05:25:14.644Z,18.30
2018-07-03T05:27:42.208Z,18.40
2018-07-03T05:30:10.432Z,18.60
2018-07-03T05:32:38.023Z,18.80
2018-07-03T05:35:05.872Z,19.00
2018-07-03T05:37:33.452Z,19.30
2018-07-03T05:40:01.009Z,19.60
2018-07-03T05:42:28.952Z,19.90
2018-07-03T05:44:56.528Z,20.10
2018-07-03T05:47:24.129Z,20.40
2018-07-03T05:49:51.732Z,20.50
2018-07-03T05:52:19.317Z,20.60
2018-07-03T05:54:46.890Z,20.60
2018-07-03T05:57:14.472Z,20.70
2018-07-03T05:59:42.036Z,20.90
2018-07-03T06:02:09.672Z,21.00
2018-07-03T06:04:37.228Z,21.30
2018-07-03T06:07:05.005Z,21.60
2018-07-03T06:09:32.654Z,22.00
2018-07-03T06:12:00.205Z,22.30
2018-07-03T06:14:27.789Z,22.50
2018-07-03T06:16:56.308Z,22.50
2018-07-03T06:19:25.640Z,22.40
2018-07-03T06:21:54.100Z,22.30
2018-07-03T06:24:21.861Z,22.30
2018-07-03T06:26:49.482Z,22.20
2018-07-03T06:29:17.077Z,22.20
2018-07-03T06:31:44.949Z,22.00
2018-07-03T06:34:12.525Z,22.00
2018-07-03T06:36:40.106Z,22.00
2018-07-03T06:39:10.409Z,22.10
2018-07-03T06:41:38.348Z,22.20
2018-07-03T06:44:07.152Z,22.40
2018-07-03T06:46:34.709Z,22.80
2018-07-03T06:49:02.668Z,22.70
2018-07-03T06:51:30.270Z,22.70
2018-07-03T06:53:58.416Z,22.60
2018-07-03T06:56:26.073Z,22.80
2018-07-03T06:58:54.536Z,23.10
2018-07-03T07:01:22.118Z,23.30
2018-07-03T07:03:49.692Z,23.10
2018-07-03T07:06:17.809Z,23.00
2018-07-03T07:11:12.924Z,23.10
2018-07-03T07:13:40.517Z,23.20
2018-07-03T07:16:08.160Z,23.30
2018-07-03T07:18:35.740Z,23.30
2018-07-03T07:21:03.364Z,23.20
2018-07-03T07:23:30.985Z,23.10
2018-07-03T07:25:58.633Z,22.90
2018-07-03T07:28:26.230Z,22.90
2018-07-03T07:30:53.824Z,23.00
2018-07-03T07:33:21.506Z,23.10
2018-07-03T07:35:49.120Z,23.40
2018-07-03T07:38:17.289Z,23.90
2018-07-03T07:40:44.927Z,24.00
2018-07-03T07:43:12.446Z,24.20
2018-07-03T07:45:40.033Z,24.20
2018-07-03T07:48:07.608Z,24.20
2018-07-03T07:50:35.305Z,24.30
2018-07-03T07:53:02.908Z,24.40
2018-07-03T07:55:30.489Z,24.30
2018-07-03T07:57:58.224Z,24.30
2018-07-03T08:00:25.873Z,24.30
2018-07-03T08:02:53.423Z,24.70
2018-07-03T08:05:21.025Z,24.70
2018-07-03T08:07:48.642Z,24.60
2018-07-03T08:10:16.435Z,24.50
2018-07-03T08:12:44.026Z,24.60
2018-07-03T08:15:11.621Z,24.80
2018-07-03T08:17:39.340Z,24.90
2018-07-03T08:20:06.989Z,24.90
2018-07-03T08:22:34.657Z,24.90
2018-07-03T08:25:02.262Z,24.90
2018-07-03T08:27:29.858Z,25.10
2018-07-03T08:29:57.408Z,25.30
2018-07-03T08:32:25.317Z,25.30
2018-07-03T08:34:52.900Z,25.70
2018-07-03T08:37:20.510Z,25.70
2018-07-03T08:39:48.124Z,25.80
2018-07-03T08:42:15.692Z,25.50
2018-07-03T08:44:43.273Z,25.60
2018-07-03T08:47:10.853Z,25.60
2018-07-03T08:49:38.446Z,25.80
2018-07-03T08:52:06.077Z,26.00
2018-07-03T08:54:33.679Z,26.20
2018-07-03T08:57:01.286Z,26.40
2018-07-03T08:59:28.869Z,26.40
2018-07-03T09:01:56.488Z,26.50
2018-07-03T09:04:24.073Z,26.30
2018-07-03T09:06:51.661Z,26.20
2018-07-03T09:09:19.286Z,26.10
2018-07-03T09:11:46.878Z,25.90
2018-07-03T09:14:14.428Z,26.10
2018-07-03T09:16:42.034Z,26.30
2018-07-03T09:19:09.624Z,26.20
2018-07-03T09:21:39.088Z,26.30
2018-07-03T09:24:06.701Z,26.40
2018-07-03T09:26:34.279Z,26.80
2018-07-03T09:29:01.856Z,26.80
2018-07-03T09:31:29.469Z,26.60
2018-07-03T09:33:57.020Z,26.50
2018-07-03T09:36:24.613Z,26.60
2018-07-03T09:38:52.196Z,26.80
2018-07-03T09:41:19.800Z,26.80
2018-07-03T09:43:48.040Z,27.10
2018-07-03T09:46:15.636Z,26.90
2018-07-03T09:48:43.271Z,27.10
2018-07-03T09:51:10.878Z,27.30
2018-07-03T09:53:38.438Z,27.50
2018-07-03T09:56:06.684Z,27.50
2018-07-03T09:58:34.288Z,27.70
2018-07-03T10:01:06.438Z,27.90
2018-07-03T10:03:33.997Z,28.20
2018-07-03T10:06:01.592Z,28.40
2018-07-03T10:08:29.993Z,28.40
2018-07-03T10:10:57.616Z,28.00
2018-07-03T10:13:25.180Z,28.20
2018-07-03T10:15:53.052Z,28.10
2018-07-03T10:18:20.648Z,27.70
2018-07-03T10:20:48.192Z,27.70
2018-07-03T10:23:15.758Z,28.00
2018-07-03T10:25:43.349Z,28.10
2018-07-03T10:28:10.948Z,28.20
2018-07-03T10:30:38.536Z,28.30
2018-07-03T10:33:06.159Z,28.40
2018-07-03T10:35:33.796Z,28.80
2018-07-03T10:38:01.364Z,29.20
2018-07-03T10:40:28.931Z,29.10
2018-07-03T10:42:56.572Z,29.00
2018-07-03T10:45:24.137Z,28.30
2018-07-03T10:47:51.748Z,27.60
2018-07-03T10:50:19.330Z,26.90
2018-07-03T10:52:47.473Z,26.30
2018-07-03T10:55:15.044Z,26.00
2018-07-03T10:57:42.660Z,26.00
2018-07-03T11:00:10.244Z,26.10
2018-07-03T11:02:38.013Z,26.20
2018-07-03T11:05:05.700Z,26.40
2018-07-03T11:07:33.396Z,26.40
2018-07-03T11:10:00.997Z,26.40
2018-07-03T11:12:28.605Z,26.10
2018-07-03T11:14:56.221Z,25.90
2018-07-03T11:17:23.817Z,25.70
2018-07-03T11:19:52.606Z,25.40
2018-07-03T11:22:20.148Z,25.20
2018-07-03T11:24:47.728Z,25.10
2018-07-03T11:27:15.354Z,24.90
2018-07-03T11:29:42.960Z,24.90
2018-07-03T11:32:10.624Z,24.80
2018-07-03T11:37:05.983Z,24.70
2018-07-03T11:39:33.609Z,24.70
2018-07-03T11:42:02.896Z,24.70
2018-07-03T11:44:30.476Z,24.80
2018-07-03T11:46:58.085Z,24.90
2018-07-03T11:49:27.269Z,24.80
2018-07-03T11:51:54.977Z,24.90
2018-07-03T11:54:22.577Z,25.10
2018-07-03T11:56:50.497Z,25.20
2018-07-03T11:59:18.065Z,25.50
2018-07-03T12:01:46.107Z,25.60
2018-07-03T12:04:14.406Z,25.90
2018-07-03T12:06:42.041Z,26.10
2018-07-03T12:09:10.405Z,26.20
2018-07-03T12:11:38.069Z,26.40
2018-07-03T12:14:06.439Z,26.70
2018-07-03T12:16:34.000Z,27.30
2018-07-03T12:19:02.508Z,27.30
2018-07-03T12:21:30.132Z,27.50
2018-07-03T12:23:58.328Z,27.70
2018-07-03T12:26:25.968Z,28.10
2018-07-03T12:28:53.698Z,28.50
2018-07-03T12:31:21.549Z,29.00
2018-07-03T12:33:49.133Z,29.10
2018-07-03T12:36:16.739Z,29.20
2018-07-03T12:38:44.310Z,29.00
2018-07-03T12:41:11.917Z,28.30
2018-07-03T12:43:39.525Z,28.30
2018-07-03T12:46:08.744Z,28.20
2018-07-03T12:48:37.312Z,28.70
2018-07-03T12:51:05.077Z,29.40
2018-07-03T12:53:32.684Z,29.40
2018-07-03T12:56:00.693Z,29.20
2018-07-03T12:58:29.223Z,28.70
2018-07-03T13:00:56.825Z,28.40
2018-07-03T13:03:24.436Z,28.10
2018-07-03T13:05:52.021Z,27.70
2018-07-03T13:08:19.665Z,27.50
2018-07-03T13:10:47.316Z,27.80
2018-07-03T13:13:14.971Z,28.10
2018-07-03T13:15:42.561Z,27.80
2018-07-03T13:18:15.993Z,27.40
2018-07-03T13:20:43.592Z,27.30
2018-07-03T13:23:11.456Z,27.30
2018-07-03T13:25:39.050Z,27.40
2018-07-03T13:28:06.680Z,27.60
2018-07-03T13:30:34.320Z,27.30
2018-07-03T13:33:01.973Z,27.10
2018-07-03T13:35:29.589Z,26.80
2018-07-03T13:37:57.192Z,26.30
2018-07-03T13:40:24.824Z,26.10
2018-07-03T13:42:52.661Z,26.10
2018-07-03T13:45:20.267Z,26.10
2018-07-03T13:47:47.948Z,25.90
2018-07-03T13:50:15.565Z,25.90
2018-07-03T13:52:43.436Z,25.80
2018-07-03T13:55:11.084Z,25.90
2018-07-03T13:57:39.525Z,25.80
2018-07-03T14:00:07.793Z,26.00
2018-07-03T14:02:35.388Z,26.00
2018-07-03T14:05:03.021Z,26.10
2018-07-03T14:07:30.633Z,26.00
2018-07-03T14:09:58.192Z,25.90
2018-07-03T14:12:25.826Z,25.60
2018-07-03T14:14:53.390Z,25.50
2018-07-03T14:17:21.156Z,25.70
2018-07-03T14:19:48.712Z,25.80
2018-07-03T14:22:16.325Z,25.80
2018-07-03T14:24:43.923Z,26.00
2018-07-03T14:27:11.508Z,26.00
2018-07-03T14:29:39.064Z,26.00
2018-07-03T14:32:06.696Z,25.80
2018-07-03T14:34:34.264Z,25.30
2018-07-03T14:37:02.584Z,25.30
2018-07-03T14:39:30.161Z,25.70
2018-07-03T14:41:57.804Z,25.50
2018-07-03T14:44:25.365Z,25.70
2018-07-03T14:46:53.000Z,25.80
2018-07-03T14:49:20.552Z,26.20
2018-07-03T14:51:48.176Z,26.60
2018-07-03T14:54:15.777Z,26.90
2018-07-03T14:56:43.383Z,26.70
2018-07-03T14:59:11.181Z,26.30
2018-07-03T15:01:38.826Z,26.30
2018-07-03T15:04:06.440Z,26.40
2018-07-03T15:06:34.017Z,26.40
2018-07-03T15:09:01.590Z,26.50
2018-07-03T15:11:29.216Z,26.50
2018-07-03T15:13:56.892Z,26.20
2018-07-03T15:16:24.628Z,25.70
2018-07-03T15:18:57.800Z,25.20
2018-07-03T15:21:25.381Z,24.90
2018-07-03T15:23:52.972Z,24.50
2018-07-03T15:26:20.565Z,24.40
2018-07-03T15:28:48.206Z,24.40
2018-07-03T15:31:15.828Z,24.40
2018-07-03T15:33:43.378Z,24.70
2018-07-03T15:36:10.988Z,24.90
2018-07-03T15:38:38.561Z,24.90
2018-07-03T15:41:06.236Z,25.80
2018-07-03T15:43:33.851Z,26.60
2018-07-03T15:46:01.436Z,26.80
2018-07-03T15:48:29.137Z,27.20
2018-07-03T15:50:56.781Z,26.70
2018-07-03T15:53:24.357Z,26.30
2018-07-03T15:55:51.943Z,26.00
2018-07-03T15:58:19.569Z,25.90
2018-07-03T16:00:47.165Z,26.80
2018-07-03T16:05:33.860Z,28.00
2018-07-03T16:09:14.672Z,29.20
2018-07-03T16:11:42.264Z,30.90
2018-07-03T16:14:10.563Z,31.20
2018-07-03T16:16:38.441Z,30.60
2018-07-03T16:19:11.896Z,30.30
2018-07-03T16:21:39.516Z,31.00
2018-07-03T16:24:07.664Z,31.40
2018-07-03T16:26:35.256Z,31.40
2018-07-03T16:29:03.901Z,31.60
2018-07-03T16:31:31.541Z,31.40
2018-07-03T16:33:59.111Z,31.50
2018-07-03T16:36:26.748Z,31.20
2018-07-03T16:38:54.321Z,31.80
2018-07-03T16:41:22.029Z,32.40
2018-07-03T16:43:49.645Z,32.50
2018-07-03T16:46:17.285Z,32.60
2018-07-03T16:48:44.877Z,32.80
2018-07-03T16:51:12.510Z,32.70
2018-07-03T16:53:40.413Z,32.20
2018-07-03T16:56:08.666Z,31.40
2018-07-03T16:58:36.650Z,31.20
2018-07-03T17:01:04.268Z,31.60
2018-07-03T17:03:31.857Z,31.60
2018-07-03T17:05:59.472Z,30.90
2018-07-03T17:08:27.064Z,30.40
2018-07-03T17:10:54.641Z,29.60
2018-07-03T17:13:22.645Z,28.50
2018-07-03T17:15:50.373Z,27.90
2018-07-03T17:18:18.135Z,27.50
2018-07-03T17:20:45.766Z,27.40
2018-07-03T17:23:13.375Z,27.10
2018-07-03T17:25:41.174Z,26.80
2018-07-03T17:28:08.788Z,26.60
2018-07-03T17:30:36.385Z,26.70
2018-07-03T17:33:04.258Z,26.90
2018-07-03T17:35:31.900Z,26.70
2018-07-03T17:37:59.472Z,26.50
2018-07-03T17:40:38.427Z,26.60
2018-07-03T17:43:16.208Z,26.80
2018-07-03T17:45:55.808Z,26.90
2018-07-03T17:48:23.399Z,26.90
2018-07-03T17:53:19.143Z,26.80
2018-07-03T17:55:46.757Z,26.80
2018-07-03T17:58:14.363Z,26.30
2018-07-03T18:00:41.973Z,26.10
2018-07-03T18:03:09.701Z,25.70
2018-07-03T18:05:37.270Z,25.20
2018-07-03T18:08:05.060Z,24.80
2018-07-03T18:10:32.658Z,24.50
2018-07-03T18:13:00.256Z,24.40
2018-07-03T18:15:28.536Z,24.30
2018-07-03T18:17:57.168Z,24.20
2018-07-03T18:20:26.144Z,24.20
2018-07-03T18:22:53.815Z,24.10
2018-07-03T18:25:21.404Z,23.90
2018-07-03T18:27:48.996Z,23.70
2018-07-03T18:30:16.592Z,23.60
2018-07-03T18:32:44.192Z,23.50
2018-07-03T18:35:11.772Z,23.40
2018-07-03T18:37:40.369Z,23.20
2018-07-03T18:40:08.029Z,23.20
2018-07-03T18:42:36.352Z,23.10
2018-07-03T18:45:05.292Z,23.00
2018-07-03T18:47:32.904Z,23.00
2018-07-03T18:50:00.532Z,22.80
2018-07-03T18:52:28.153Z,22.70
2018-07-03T18:54:56.827Z,22.70
2018-07-03T18:57:24.458Z,22.60
2018-07-03T18:59:52.081Z,22.60
2018-07-03T19:02:19.671Z,22.50
2018-07-03T19:07:15.748Z,22.30
2018-07-03T19:09:43.380Z,22.20
2018-07-03T19:12:10.980Z,22.00
2018-07-03T19:14:38.580Z,21.80
2018-07-03T19:17:06.269Z,21.60
2018-07-03T19:19:33.944Z,21.40
2018-07-03T19:22:01.568Z,21.20
2018-07-03T19:24:29.171Z,21.00
2018-07-03T19:26:56.759Z,20.80
2018-07-03T19:29:24.844Z,20.60
2018-07-03T19:31:52.947Z,20.50
2018-07-03T19:34:21.625Z,20.50
2018-07-03T19:36:49.232Z,20.40
2018-07-03T19:39:16.852Z,20.50
2018-07-03T19:41:44.477Z,20.50
2018-07-03T19:44:12.129Z,20.80
2018-07-03T19:46:39.757Z,20.70
2018-07-03T19:49:07.366Z,20.70
2018-07-03T19:51:35.076Z,20.60
2018-07-03T19:54:03.012Z,20.70
2018-07-03T19:56:31.017Z,20.60
2018-07-03T19:58:58.662Z,20.60
2018-07-03T20:01:26.276Z,20.60
2018-07-03T20:03:53.863Z,20.60
2018-07-03T20:06:21.464Z,20.60
2018-07-03T20:08:49.081Z,20.40
2018-07-03T20:11:16.713Z,20.30
2018-07-03T20:13:44.376Z,20.40
2018-07-03T20:16:12.001Z,20.30
2018-07-03T20:18:39.604Z,20.20
2018-07-03T20:21:08.257Z,20.10
2018-07-03T20:23:36.044Z,20.10
2018-07-03T20:26:03.703Z,20.10
2018-07-03T20:28:32.140Z,20.00
2018-07-03T20:30:59.784Z,20.00
2018-07-03T20:33:27.388Z,19.90
2018-07-03T20:35:55.103Z,19.90
2018-07-03T20:38:23.868Z,19.70
2018-07-03T20:40:56.416Z,19.70
2018-07-03T20:43:25.969Z,19.70
2018-07-03T20:48:21.869Z,19.70
2018-07-03T20:50:49.492Z,19.50
2018-07-03T20:55:44.644Z,19.60
2018-07-03T21:00:39.842Z,19.50
2018-07-03T21:03:07.773Z,19.60
2018-07-03T21:05:35.392Z,19.60
2018-07-03T21:08:03.192Z,19.60
2018-07-03T21:10:30.873Z,19.50
2018-07-03T21:12:58.453Z,19.40
2018-07-03T21:15:26.046Z,19.40
2018-07-03T21:17:53.640Z,19.20
2018-07-03T21:20:24.213Z,19.20
2018-07-03T21:22:51.897Z,19.20
2018-07-03T21:25:19.519Z,19.20
2018-07-03T21:27:47.762Z,19.20
2018-07-03T21:30:15.421Z,19.20
2018-07-03T21:32:44.109Z,19.20
2018-07-03T21:35:11.916Z,19.10
2018-07-03T21:37:39.881Z,19.00
2018-07-03T21:40:07.491Z,18.80
2018-07-03T21:42:35.481Z,18.70
2018-07-03T21:45:03.178Z,18.40
2018-07-03T21:47:30.790Z,18.30
2018-07-03T21:49:58.394Z,18.30
2018-07-03T21:52:25.989Z,18.40
2018-07-03T22:02:16.190Z,18.40
2018-07-03T22:04:43.813Z,18.40
2018-07-03T22:07:12.086Z,18.40
2018-07-03T22:09:40.409Z,18.40
2018-07-03T22:12:07.998Z,18.30
2018-07-03T22:14:38.073Z,18.30
2018-07-03T22:17:07.070Z,18.30
2018-07-03T22:19:35.281Z,18.30
2018-07-03T22:22:03.462Z,18.30
2018-07-03T22:24:31.805Z,18.30
2018-07-03T22:26:59.405Z,18.30
2018-07-03T22:29:26.998Z,18.40
2018-07-03T22:31:54.894Z,18.30
2018-07-03T22:34:22.557Z,18.30
2018-07-03T22:36:50.149Z,18.20
2018-07-03T22:39:18.056Z,18.10
2018-07-03T22:41:47.630Z,18.20
2018-07-03T22:44:15.257Z,18.10
2018-07-03T22:46:42.862Z,18.10
2018-07-03T22:49:10.461Z,18.30
2018-07-03T22:51:38.120Z,18.30
2018-07-03T22:54:05.737Z,18.40
2018-07-03T22:56:33.935Z,18.50
2018-07-03T22:59:01.805Z,18.30
2018-07-03T23:01:29.722Z,18.30
2018-07-03T23:03:57.325Z,18.30
2018-07-03T23:06:25.277Z,18.30
2018-07-03T23:08:53.585Z,18.30
2018-07-03T23:11:21.168Z,18.40
2018-07-03T23:13:49.737Z,18.30
2018-07-03T23:16:17.358Z,18.30
2018-07-03T23:18:44.954Z,18.30
2018-07-03T23:21:13.250Z,18.30
2018-07-03T23:23:40.849Z,18.40
2018-07-03T23:26:09.476Z,18.30
2018-07-03T23:28:37.808Z,18.30
2018-07-03T23:31:05.421Z,18.30
2018-07-03T23:33:33.012Z,18.30
2018-07-03T23:36:00.645Z,18.40
2018-07-03T23:38:28.217Z,18.40
2018-07-03T23:40:55.885Z,18.40
2018-07-03T23:43:23.473Z,18.40
2018-07-03T23:46:00.030Z,18.40
2018-07-03T23:48:39.856Z,18.40
2018-07-03T23:51:19.516Z,18.30
2018-07-03T23:53:58.610Z,18.30
2018-07-03T23:56:38.731Z,18.30
2018-07-03T23:59:17.895Z,18.10
